EVLA/LPX METAR and TAF weather

Enter ICAO airport designator
Station Type Date Time Source
EVLA METAR 2021/10/22 18:50 UTC NOAA

EVLA 221850Z AUTO 29010KT 260V320 9999 FEW030/// BKN160/// BKN200/// 08/03 Q0994


Station Type Date Time Source
EVLA Decoded METAR 2021/10/22 18:50 UTC NOAA

Liepaja International Airport, Latvia (EVLA) 56-31N 021-05E
Oct 22, 2021 - 02:50 PM EDT / 2021.10.22 1850 UTC
Wind: from the WNW (290 degrees) at 12 MPH (10 KT) (direction variable):0
Visibility: greater than 7 mile(s):0
Sky conditions: mostly cloudy
Temperature: 46 F (8 C)
Dew Point: 37 F (3 C)
Relative Humidity: 70%
Pressure (altimeter): 29.35 in. Hg (0994 hPa)
ob: EVLA 221850Z AUTO 29010KT 260V320 9999 FEW030/// BKN160/// BKN200/// 08/03 Q0994
cycle: 19

Station Type Date Time Source
EVLA TAF 2021/10/22 18:07 UTC NOAA

TAF EVLA 221705Z 2218/2318 30010KT 9999 BKN025
TEMPO 2309/2316 32018G28KT BKN020CB

Example: see airport list